Time;durP1;ratioP1;P1;durP2;ratioP2;P2;SDS_P1;SDS_P2;PMS_P1;PMS_P2;Temp;Humidity;BMP_temperature;BMP_pressure;BME280_temperature;BME280_humidity;BME280_pressure;Samples;Min_cycle;Max_cycle;Signal;HPM_P1;HPM_P2
2023/03/13 00:00:56;;;;;;;8.20;4.10;;;;;;;4.83;84.98;98491.56;109375;1250;58998;-74
2023/03/13 00:03:23;;;;;;;6.90;3.90;;;;;;;4.85;85.34;98496.55;109411;1251;59163;-74
2023/03/13 00:05:55;;;;;;;9.10;4.80;;;;;;;4.87;85.41;98494.52;109378;1251;65734;-74
2023/03/13 00:08:21;;;;;;;9.90;6.00;;;;;;;4.88;85.94;98491.65;109478;1250;59783;-73
2023/03/13 00:10:48;;;;;;;5.80;3.60;;;;;;;4.89;86.66;98496.16;109612;1250;64815;-73
2023/03/13 00:13:14;;;;;;;10.00;5.00;;;;;;;4.91;86.93;98493.77;109614;1251;58997;-73
2023/03/13 00:15:41;;;;;;;6.00;4.10;;;;;;;4.93;87.28;98494.73;109633;1251;59434;-74
2023/03/13 00:18:08;;;;;;;6.40;4.30;;;;;;;4.94;87.89;98493.27;109646;1250;65616;-73
2023/03/13 00:20:34;;;;;;;6.40;3.70;;;;;;;4.95;88.29;98486.37;109634;1251;59770;-74
2023/03/13 00:23:01;;;;;;;3.90;3.60;;;;;;;4.96;88.43;98485.62;109615;1251;65045;-74
2023/03/13 00:25:27;;;;;;;7.10;3.90;;;;;;;4.96;88.61;98488.23;109605;1251;58909;-73
2023/03/13 00:27:54;;;;;;;6.40;3.80;;;;;;;4.95;89.18;98483.36;109626;1250;59044;-74
2023/03/13 00:30:21;;;;;;;8.20;4.30;;;;;;;4.93;89.58;98483.80;109313;1256;67021;-73
2023/03/13 00:32:48;;;;;;;6.20;4.30;;;;;;;4.92;89.86;98483.73;109643;1250;60709;-74
2023/03/13 00:35:15;;;;;;;5.30;4.40;;;;;;;4.89;90.15;98479.09;109576;1251;62799;-74
2023/03/13 00:37:42;;;;;;;7.60;4.80;;;;;;;4.87;90.97;98472.70;109632;1251;59061;-74
2023/03/13 00:40:10;;;;;;;9.40;5.20;;;;;;;4.86;91.47;98469.59;109388;1251;59011;-74
2023/03/13 00:42:36;;;;;;;6.10;4.40;;;;;;;4.87;91.75;98466.38;109615;1250;67240;-74
2023/03/13 00:45:03;;;;;;;11.70;6.10;;;;;;;4.88;92.44;98465.10;109680;1250;61310;-74
2023/03/13 00:47:30;;;;;;;11.60;5.50;;;;;;;4.88;92.81;98458.94;109611;1250;65374;-73
2023/03/13 00:49:56;;;;;;;8.50;5.40;;;;;;;4.89;93.19;98450.42;109639;1250;59081;-73
2023/03/13 00:52:23;;;;;;;7.70;5.30;;;;;;;4.91;93.22;98451.55;109360;1251;58990;-73
2023/03/13 00:54:50;;;;;;;7.60;4.60;;;;;;;4.90;93.53;98443.48;109638;1250;66762;-74
2023/03/13 00:57:17;;;;;;;7.20;4.40;;;;;;;4.90;93.94;98438.02;109640;1250;59725;-74
2023/03/13 00:59:43;;;;;;;7.30;4.90;;;;;;;4.91;94.41;98442.23;109415;1251;62426;-74
2023/03/13 01:02:10;;;;;;;9.60;6.00;;;;;;;4.92;94.98;98437.93;109641;1250;59032;-73
2023/03/13 01:04:36;;;;;;;9.20;5.20;;;;;;;4.94;94.91;98437.83;109662;1250;59051;-74
2023/03/13 01:07:03;;;;;;;8.30;4.70;;;;;;;4.95;94.68;98442.33;109682;1250;67151;-73
2023/03/13 01:09:29;;;;;;;12.00;5.50;;;;;;;4.97;95.58;98445.04;109555;1253;60211;-73
2023/03/13 01:11:56;;;;;;;8.50;5.20;;;;;;;4.99;95.66;98443.71;109636;1250;63736;-73
2023/03/13 01:14:23;;;;;;;7.90;5.00;;;;;;;5.01;96.55;98443.58;109372;1251;59032;-73
2023/03/13 01:16:49;;;;;;;7.00;4.30;;;;;;;5.04;96.82;98442.91;109677;1250;58941;-74
2023/03/13 01:19:16;;;;;;;6.90;4.10;;;;;;;5.06;96.97;98444.05;109652;1250;66952;-73
2023/03/13 01:21:44;;;;;;;10.40;5.90;;;;;;;5.08;97.74;98442.89;109684;1250;60821;-74
2023/03/13 01:24:11;;;;;;;6.20;4.10;;;;;;;5.10;98.07;98442.09;109636;1250;65172;-73
2023/03/13 01:26:38;;;;;;;6.40;4.60;;;;;;;5.13;98.51;98443.70;109685;1250;59038;-73
2023/03/13 01:29:05;;;;;;;5.70;4.30;;;;;;;5.15;98.74;98439.69;109658;1250;59031;-73
2023/03/13 01:31:34;;;;;;;5.00;3.80;;;;;;;5.16;98.80;98439.64;109652;1250;65958;-73
2023/03/13 01:34:03;;;;;;;7.90;5.40;;;;;;;5.16;99.17;98443.17;109610;1250;60694;-73
2023/03/13 01:36:31;;;;;;;6.40;4.80;;;;;;;5.17;99.28;98444.38;109683;1250;65045;-73
2023/03/13 01:38:59;;;;;;;7.20;5.40;;;;;;;5.18;99.85;98446.95;109623;1250;59093;-74
2023/03/13 01:41:28;;;;;;;12.10;6.20;;;;;;;5.19;99.92;98448.83;109618;1250;59065;-74
2023/03/13 01:43:56;;;;;;;6.80;4.90;;;;;;;5.19;100.00;98449.18;109658;1250;66650;-73
2023/03/13 01:46:26;;;;;;;6.90;4.80;;;;;;;5.20;100.00;98452.10;109574;1251;61157;-73
2023/03/13 01:49:11;;;;;;;;;;;;;;;5.21;100.00;98450.30;109456;1254;63751;-74
2023/03/13 01:51:42;;;;;;;6.10;3.70;;;;;;;5.21;100.00;98449.39;109624;1250;58986;-73
2023/03/13 01:54:19;;;;;;;6.00;4.40;;;;;;;5.23;100.00;98450.91;109615;1250;59007;-74
2023/03/13 01:56:57;;;;;;;9.90;5.00;;;;;;;5.24;100.00;98453.63;109633;1250;66957;-74
2023/03/13 01:59:29;;;;;;;6.70;3.90;;;;;;;5.26;100.00;98450.70;109575;1250;60834;-73
2023/03/13 02:01:59;;;;;;;4.50;3.20;;;;;;;5.30;100.00;98454.07;109460;1250;63747;-73
2023/03/13 02:04:30;;;;;;;7.50;4.50;;;;;;;5.33;100.00;98457.21;109561;1250;59020;-73
2023/03/13 02:07:02;;;;;;;4.90;3.50;;;;;;;5.35;100.00;98458.15;109560;1250;58980;-73
2023/03/13 02:09:30;;;;;;;6.00;4.40;;;;;;;5.37;100.00;98460.34;109663;1250;65765;-73
2023/03/13 02:12:00;;;;;;;6.60;4.30;;;;;;;5.38;100.00;98459.39;109626;1250;60941;-73
2023/03/13 02:14:29;;;;;;;7.40;4.40;;;;;;;5.39;100.00;98455.66;109595;1250;65014;-74
2023/03/13 02:16:56;;;;;;;6.90;3.90;;;;;;;5.41;100.00;98454.67;109570;1250;59049;-73
2023/03/13 02:19:39;;;;;;;8.40;4.60;;;;;;;5.41;100.00;98452.35;109385;1250;59035;-73
2023/03/13 02:22:11;;;;;;;4.80;4.30;;;;;;;5.42;100.00;98445.80;109610;1250;65676;-74
2023/03/13 02:25:20;;;;;;;5.70;3.70;;;;;;;5.44;100.00;98442.14;109618;1250;60945;-74
2023/03/13 02:27:47;;;;;;;8.50;5.00;;;;;;;5.45;100.00;98447.73;109616;1250;64471;-73
2023/03/13 02:30:14;;;;;;;6.20;4.00;;;;;;;5.46;100.00;98454.23;109629;1250;59013;-73
2023/03/13 02:32:42;;;;;;;12.70;6.60;;;;;;;5.48;100.00;98459.60;109660;1250;59021;-74
2023/03/13 02:35:16;;;;;;;7.90;4.80;;;;;;;5.49;100.00;98465.30;109631;1250;65927;-73
2023/03/13 02:37:46;;;;;;;8.90;5.70;;;;;;;5.52;100.00;98468.88;109636;1250;61085;-73
2023/03/13 02:40:17;;;;;;;10.00;6.00;;;;;;;5.54;100.00;98475.64;109572;1250;64734;-74
2023/03/13 02:42:45;;;;;;;12.60;6.30;;;;;;;5.55;100.00;98480.52;109409;1250;58933;-74
2023/03/13 02:45:16;;;;;;;11.40;5.30;;;;;;;5.55;100.00;98485.79;109605;1250;59038;-73
2023/03/13 02:47:43;;;;;;;7.80;4.60;;;;;;;5.56;100.00;98492.25;109676;1250;66074;-73
2023/03/13 02:50:12;;;;;;;8.10;4.10;;;;;;;5.58;100.00;98494.64;109663;1250;60095;-73
2023/03/13 02:52:44;;;;;;;7.90;4.40;;;;;;;5.60;100.00;98493.77;109619;1250;64699;-73
2023/03/13 02:55:17;;;;;;;7.70;5.00;;;;;;;5.63;100.00;98495.59;109580;1250;59003;-73
2023/03/13 02:57:43;;;;;;;4.80;4.00;;;;;;;5.64;100.00;98495.87;109676;1250;58901;-73
2023/03/13 03:00:47;;;;;;;5.30;4.50;;;;;;;5.65;100.00;98495.13;109618;1250;66759;-74
2023/03/13 03:03:14;;;;;;;5.20;4.50;;;;;;;5.66;100.00;98496.31;109634;1250;61121;-73
2023/03/13 03:05:59;;;;;;;5.00;3.70;;;;;;;5.66;100.00;98491.02;109653;1250;65038;-74
2023/03/13 03:08:25;;;;;;;5.50;3.90;;;;;;;5.65;100.00;98492.62;109527;1250;58976;-74
2023/03/13 03:10:52;;;;;;;4.30;3.70;;;;;;;5.65;100.00;98493.69;109670;1250;58849;-73
2023/03/13 03:13:19;;;;;;;5.70;4.40;;;;;;;5.65;100.00;98489.81;109669;1250;67255;-73
2023/03/13 03:15:45;;;;;;;8.90;5.20;;;;;;;5.65;100.00;98492.81;109391;1250;59066;-74
2023/03/13 03:18:12;;;;;;;8.30;4.80;;;;;;;5.65;100.00;98494.39;109664;1250;63723;-73
2023/03/13 03:20:38;;;;;;;9.10;4.40;;;;;;;5.65;100.00;98491.59;109641;1250;59005;-73
2023/03/13 03:23:05;;;;;;;7.00;4.30;;;;;;;5.64;100.00;98486.68;109598;1250;58995;-73
2023/03/13 03:25:32;;;;;;;7.80;4.60;;;;;;;5.65;100.00;98486.83;109633;1250;66755;-73
2023/03/13 03:27:58;;;;;;;7.20;4.40;;;;;;;5.65;100.00;98475.01;109661;1250;61217;-73
2023/03/13 03:30:25;;;;;;;6.50;4.40;;;;;;;5.65;100.00;98471.46;109635;1250;65338;-73
2023/03/13 03:32:51;;;;;;;7.60;4.90;;;;;;;5.66;100.00;98476.36;109596;1250;59000;-74
2023/03/13 03:35:18;;;;;;;9.20;5.10;;;;;;;5.66;100.00;98483.42;109640;1250;59026;-74
2023/03/13 03:37:44;;;;;;;7.30;4.80;;;;;;;5.66;100.00;98485.36;109624;1250;66675;-73
2023/03/13 03:40:12;;;;;;;6.30;4.60;;;;;;;5.65;100.00;98484.53;109688;1250;61128;-74
2023/03/13 03:42:39;;;;;;;7.60;4.70;;;;;;;5.64;100.00;98481.58;109551;1250;64834;-73
2023/03/13 03:45:06;;;;;;;8.60;4.40;;;;;;;5.64;100.00;98485.48;109335;1250;59025;-74
2023/03/13 03:47:32;;;;;;;7.80;5.00;;;;;;;5.63;100.00;98483.78;109672;1250;58969;-73
2023/03/13 03:49:59;;;;;;;8.90;5.00;;;;;;;5.62;100.00;98488.55;109621;1251;65894;-74
2023/03/13 03:52:25;;;;;;;9.50;5.70;;;;;;;5.61;100.00;98488.81;109614;1250;59726;-74
2023/03/13 03:54:52;;;;;;;9.20;5.40;;;;;;;5.60;100.00;98488.18;109579;1250;64782;-74
2023/03/13 03:57:18;;;;;;;9.20;5.00;;;;;;;5.59;100.00;98483.27;109589;1250;59089;-74
2023/03/13 03:59:45;;;;;;;6.80;4.70;;;;;;;5.59;100.00;98481.20;109620;1250;59308;-74
2023/03/13 04:02:12;;;;;;;8.00;5.30;;;;;;;5.59;100.00;98481.55;109663;1250;66888;-74
2023/03/13 04:04:38;;;;;;;9.40;5.30;;;;;;;5.59;100.00;98487.52;109647;1250;59853;-74
2023/03/13 04:07:05;;;;;;;11.00;5.90;;;;;;;5.59;100.00;98489.27;109620;1250;64843;-74
2023/03/13 04:09:31;;;;;;;9.10;5.80;;;;;;;5.60;100.00;98492.02;109680;1250;58990;-74
2023/03/13 04:11:58;;;;;;;9.70;5.90;;;;;;;5.61;100.00;98496.02;109637;1250;58976;-74
2023/03/13 04:14:25;;;;;;;9.50;6.30;;;;;;;5.61;100.00;98496.36;109635;1250;66778;-74
2023/03/13 04:16:51;;;;;;;8.20;6.00;;;;;;;5.61;100.00;98496.39;109676;1250;59684;-74
2023/03/13 04:19:18;;;;;;;9.00;6.90;;;;;;;5.61;100.00;98497.42;109636;1250;64731;-74
2023/03/13 04:21:44;;;;;;;8.80;6.10;;;;;;;5.61;100.00;98496.74;109626;1250;59031;-74
2023/03/13 04:24:11;;;;;;;9.50;6.70;;;;;;;5.61;100.00;98490.36;109594;1250;59099;-74
2023/03/13 04:26:38;;;;;;;8.40;6.10;;;;;;;5.62;100.00;98491.23;109401;1250;67055;-74
2023/03/13 04:29:05;;;;;;;8.50;6.40;;;;;;;5.62;100.00;98484.19;109649;1250;59816;-74
2023/03/13 04:31:32;;;;;;;8.70;6.50;;;;;;;5.62;100.00;98482.23;109610;1250;63667;-74
2023/03/13 04:33:58;;;;;;;9.40;6.80;;;;;;;5.62;100.00;98484.51;109580;1250;58956;-74
2023/03/13 04:36:25;;;;;;;7.70;5.50;;;;;;;5.63;100.00;98488.00;109630;1250;59293;-75
2023/03/13 04:38:52;;;;;;;8.60;5.80;;;;;;;5.64;100.00;98487.26;109329;1250;65853;-74
2023/03/13 04:41:19;;;;;;;8.10;5.20;;;;;;;5.65;100.00;98484.91;109631;1250;59815;-74
2023/03/13 04:43:45;;;;;;;7.00;5.80;;;;;;;5.65;100.00;98483.64;109631;1250;64668;-74
2023/03/13 04:46:12;;;;;;;6.90;5.90;;;;;;;5.65;100.00;98484.02;109646;1250;59067;-74
2023/03/13 04:48:39;;;;;;;8.70;7.80;;;;;;;5.64;100.00;98478.23;109651;1250;59043;-74
2023/03/13 04:51:05;;;;;;;9.30;8.20;;;;;;;5.64;100.00;98477.37;109413;1250;65744;-74
2023/03/13 04:53:32;;;;;;;8.60;7.70;;;;;;;5.63;100.00;98474.59;109628;1250;61009;-74
2023/03/13 04:55:58;;;;;;;9.40;7.50;;;;;;;5.62;100.00;98475.86;109653;1250;65326;-74
2023/03/13 04:58:25;;;;;;;11.20;6.90;;;;;;;5.62;100.00;98476.77;109616;1250;59010;-74
2023/03/13 05:00:52;;;;;;;8.80;6.70;;;;;;;5.62;100.00;98474.48;109620;1250;59034;-74
2023/03/13 05:03:19;;;;;;;8.60;6.60;;;;;;;5.62;100.00;98477.15;109611;1251;66786;-74
2023/03/13 05:05:46;;;;;;;10.00;6.70;;;;;;;5.62;100.00;98472.56;109674;1250;61539;-74
2023/03/13 05:08:12;;;;;;;7.40;6.30;;;;;;;5.62;100.00;98474.48;109632;1250;64944;-74
2023/03/13 05:10:41;;;;;;;7.00;6.20;;;;;;;5.62;100.00;98473.25;109598;1250;59077;-74
2023/03/13 05:13:08;;;;;;;7.10;6.40;;;;;;;5.61;100.00;98472.39;109588;1250;58964;-74
2023/03/13 05:15:34;;;;;;;7.30;6.50;;;;;;;5.62;100.00;98469.52;109602;1250;67033;-73
2023/03/13 05:18:01;;;;;;;8.70;7.30;;;;;;;5.64;100.00;98466.27;109612;1250;59848;-74
2023/03/13 05:20:27;;;;;;;11.10;7.60;;;;;;;5.64;100.00;98468.20;109649;1250;64885;-74
2023/03/13 05:22:54;;;;;;;11.60;8.00;;;;;;;5.65;100.00;98463.75;109582;1250;59311;-73
2023/03/13 05:25:21;;;;;;;10.10;8.10;;;;;;;5.65;100.00;98463.73;109407;1250;59007;-74
2023/03/13 05:27:47;;;;;;;9.70;7.10;;;;;;;5.66;100.00;98464.05;109639;1250;65749;-74
2023/03/13 05:30:14;;;;;;;7.90;6.30;;;;;;;5.67;100.00;98464.34;109616;1251;60696;-74
2023/03/13 05:32:40;;;;;;;10.10;6.30;;;;;;;5.68;100.00;98463.71;109675;1250;64714;-74
2023/03/13 05:35:07;;;;;;;10.00;7.00;;;;;;;5.70;100.00;98465.23;109646;1253;59040;-72
2023/03/13 05:37:34;;;;;;;9.50;6.30;;;;;;;5.71;100.00;98467.11;109601;1250;59089;-73
2023/03/13 05:40:01;;;;;;;8.80;7.10;;;;;;;5.72;100.00;98466.49;109642;1250;66691;-73
2023/03/13 05:42:27;;;;;;;8.70;7.10;;;;;;;5.75;100.00;98467.61;109710;1250;59825;-74
2023/03/13 05:44:54;;;;;;;8.30;6.80;;;;;;;5.77;100.00;98469.10;109646;1250;64903;-74
2023/03/13 05:47:20;;;;;;;10.60;7.20;;;;;;;5.79;100.00;98468.59;109653;1250;59011;-74
2023/03/13 05:49:47;;;;;;;10.30;7.50;;;;;;;5.82;100.00;98467.04;109684;1250;58993;-74
2023/03/13 05:52:13;;;;;;;9.60;7.20;;;;;;;5.83;100.00;98469.77;109618;1250;65783;-74
2023/03/13 05:54:40;;;;;;;13.80;8.30;;;;;;;5.85;100.00;98470.57;109639;1250;61043;-74
2023/03/13 05:57:07;;;;;;;10.90;9.00;;;;;;;5.86;100.00;98473.83;109642;1250;64749;-73
2023/03/13 05:59:33;;;;;;;12.90;8.50;;;;;;;5.89;100.00;98477.20;109619;1250;59014;-73
2023/03/13 06:02:00;;;;;;;11.80;8.90;;;;;;;5.92;100.00;98475.63;109662;1250;58938;-74
2023/03/13 06:04:26;;;;;;;13.50;9.30;;;;;;;5.99;100.00;98475.80;109618;1250;67196;-74
2023/03/13 06:06:53;;;;;;;9.60;8.40;;;;;;;6.08;100.00;98471.42;109634;1250;59753;-73
2023/03/13 06:09:20;;;;;;;12.70;9.20;;;;;;;6.20;100.00;98470.91;109614;1250;65025;-74
2023/03/13 06:11:46;;;;;;;12.10;8.40;;;;;;;6.35;100.00;98464.92;109484;1250;59314;-74
2023/03/13 06:14:13;;;;;;;13.30;8.60;;;;;;;6.52;100.00;98463.42;109649;1250;59144;-74
2023/03/13 06:16:40;;;;;;;14.20;9.30;;;;;;;6.68;100.00;98457.16;109618;1250;65927;-74
2023/03/13 06:19:06;;;;;;;11.50;8.20;;;;;;;6.84;100.00;98451.27;109613;1250;60698;-73
2023/03/13 06:21:33;;;;;;;12.30;8.50;;;;;;;6.97;100.00;98446.05;109641;1250;64959;-74
2023/03/13 06:24:00;;;;;;;12.20;7.30;;;;;;;7.10;100.00;98435.91;109616;1250;59012;-73
2023/03/13 06:26:26;;;;;;;10.30;7.30;;;;;;;7.22;100.00;98429.13;109442;1250;59114;-73
2023/03/13 06:28:53;;;;;;;14.60;7.40;;;;;;;7.32;100.00;98425.54;109580;1251;66008;-74
2023/03/13 06:31:20;;;;;;;14.10;7.90;;;;;;;7.40;100.00;98420.56;109617;1250;60180;-74
2023/03/13 06:33:46;;;;;;;11.00;7.40;;;;;;;7.48;100.00;98421.86;109626;1250;64733;-73
2023/03/13 06:36:13;;;;;;;13.90;7.90;;;;;;;7.55;100.00;98423.55;109571;1250;59221;-73
2023/03/13 06:38:40;;;;;;;11.30;7.70;;;;;;;7.62;100.00;98424.87;109627;1250;58897;-73
2023/03/13 06:41:07;;;;;;;11.40;7.40;;;;;;;7.71;100.00;98421.45;109613;1250;66970;-74
2023/03/13 06:43:33;;;;;;;13.30;7.80;;;;;;;7.81;100.00;98422.08;109618;1250;59747;-74
2023/03/13 06:46:04;;;;;;;11.80;7.20;;;;;;;7.93;100.00;98422.16;109574;1250;65175;-73
2023/03/13 06:48:31;;;;;;;10.10;7.30;;;;;;;8.04;100.00;98424.45;109392;1250;59017;-74
2023/03/13 06:50:57;;;;;;;12.00;7.40;;;;;;;8.13;100.00;98423.50;109426;1250;59155;-74
2023/03/13 06:53:24;;;;;;;11.90;7.10;;;;;;;8.21;100.00;98424.04;109656;1250;65871;-74
2023/03/13 06:55:51;;;;;;;11.70;6.90;;;;;;;8.29;100.00;98427.38;109504;1250;61264;-74
2023/03/13 06:58:17;;;;;;;11.30;7.30;;;;;;;8.40;100.00;98425.58;109617;1250;65080;-74
2023/03/13 07:00:45;;;;;;;10.90;7.20;;;;;;;8.53;100.00;98426.69;109639;1250;59448;-74
2023/03/13 07:03:13;;;;;;;12.50;7.40;;;;;;;8.68;100.00;98425.48;109438;1250;58984;-74
2023/03/13 07:05:39;;;;;;;9.70;6.50;;;;;;;8.85;100.00;98424.52;109582;1250;66984;-74
2023/03/13 07:08:06;;;;;;;10.80;6.20;;;;;;;9.00;100.00;98418.83;109594;1250;59437;-74
2023/03/13 07:10:33;;;;;;;10.30;5.90;;;;;;;9.14;100.00;98415.55;109586;1250;64842;-74
2023/03/13 07:12:59;;;;;;;12.30;5.90;;;;;;;9.28;100.00;98410.46;109455;1254;59447;-74
2023/03/13 07:15:26;;;;;;;10.00;5.80;;;;;;;9.46;100.00;98406.90;109666;1250;59031;-74
2023/03/13 07:17:56;;;;;;;9.40;4.90;;;;;;;9.61;100.00;98403.30;109659;1250;67319;-74
2023/03/13 07:20:22;;;;;;;10.00;5.60;;;;;;;9.71;100.00;98397.45;109534;1250;60774;-73
2023/03/13 07:22:52;;;;;;;11.20;5.20;;;;;;;9.83;100.00;98395.52;109624;1250;63740;-74
2023/03/13 07:25:19;;;;;;;8.10;5.00;;;;;;;10.01;99.99;98390.46;109608;1250;58961;-75
2023/03/13 07:27:49;;;;;;;10.70;5.20;;;;;;;10.17;99.53;98391.79;109630;1250;58974;-74
2023/03/13 07:30:17;;;;;;;9.80;5.30;;;;;;;10.30;98.87;98389.39;109500;1250;66047;-72
2023/03/13 07:32:43;;;;;;;8.80;4.90;;;;;;;10.43;98.06;98385.97;109609;1250;60811;-74
2023/03/13 07:35:10;;;;;;;9.80;5.30;;;;;;;10.50;96.97;98385.77;109598;1250;63847;-74
2023/03/13 07:37:37;;;;;;;8.70;5.00;;;;;;;10.50;95.99;98386.84;109625;1250;58971;-74
2023/03/13 07:40:08;;;;;;;7.80;4.30;;;;;;;10.47;96.21;98387.04;109604;1250;59051;-74
2023/03/13 07:42:35;;;;;;;9.60;4.90;;;;;;;10.42;95.99;98382.24;109607;1250;65827;-74
2023/03/13 07:45:02;;;;;;;11.60;5.20;;;;;;;10.36;95.45;98378.08;109642;1250;61253;-74
2023/03/13 07:47:28;;;;;;;8.80;5.10;;;;;;;10.31;95.13;98377.75;109622;1250;64219;-74
2023/03/13 07:49:55;;;;;;;8.10;5.30;;;;;;;10.38;95.51;98374.98;109589;1250;59149;-74
2023/03/13 07:52:21;;;;;;;7.70;4.90;;;;;;;10.44;95.14;98375.39;109642;1250;59087;-74
2023/03/13 07:54:48;;;;;;;8.90;4.70;;;;;;;10.46;94.66;98374.02;109669;1250;66748;-74
2023/03/13 07:57:14;;;;;;;9.80;4.60;;;;;;;10.51;94.76;98371.46;109623;1250;60699;-74
2023/03/13 07:59:41;;;;;;;7.70;4.20;;;;;;;10.64;94.78;98368.86;109616;1250;65305;-74
2023/03/13 08:02:12;;;;;;;8.70;4.60;;;;;;;10.91;94.43;98363.41;109609;1249;58946;-74
2023/03/13 08:04:40;;;;;;;8.90;4.30;;;;;;;11.16;92.76;98360.00;109607;1250;59014;-74
2023/03/13 08:07:08;;;;;;;8.30;4.70;;;;;;;11.33;91.52;98357.05;109540;1250;67140;-74
2023/03/13 08:09:34;;;;;;;7.50;4.30;;;;;;;11.44;90.82;98355.42;109656;1250;61094;-74
2023/03/13 08:12:01;;;;;;;9.40;4.60;;;;;;;11.53;90.73;98353.11;109666;1250;64871;-72
2023/03/13 08:14:28;;;;;;;9.00;4.60;;;;;;;11.58;90.40;98351.09;109591;1250;58947;-74
2023/03/13 08:16:54;;;;;;;10.20;4.90;;;;;;;11.54;89.56;98352.69;109633;1250;58999;-74
2023/03/13 08:19:21;;;;;;;6.90;4.20;;;;;;;11.52;89.25;98351.98;109653;1250;65645;-73
2023/03/13 08:21:48;;;;;;;8.80;4.80;;;;;;;11.53;88.84;98350.83;109613;1250;60820;-74
2023/03/13 08:24:14;;;;;;;7.10;3.80;;;;;;;11.50;88.13;98352.51;109627;1250;65006;-75
2023/03/13 08:26:41;;;;;;;6.40;4.60;;;;;;;11.50;88.23;98350.68;109629;1250;58965;-74
2023/03/13 08:29:11;;;;;;;8.30;4.00;;;;;;;11.53;88.03;98342.30;109725;1250;58875;-74
2023/03/13 08:31:42;;;;;;;8.60;5.00;;;;;;;11.56;87.72;98337.91;109630;1250;65998;-73
2023/03/13 08:34:10;;;;;;;11.60;4.60;;;;;;;11.58;86.93;98340.48;109621;1250;60832;-72
2023/03/13 08:36:38;;;;;;;7.90;4.50;;;;;;;11.59;86.62;98340.38;109316;1250;62946;-72
2023/03/13 08:39:16;;;;;;;10.50;4.40;;;;;;;11.57;85.95;98336.90;109614;1250;58952;-72
2023/03/13 08:41:43;;;;;;;12.00;4.80;;;;;;;11.59;86.48;98331.42;109544;1250;59093;-74
2023/03/13 08:44:13;;;;;;;8.20;4.20;;;;;;;11.69;86.59;98329.05;109604;1250;65955;-74
2023/03/13 08:46:40;;;;;;;9.40;4.00;;;;;;;11.78;85.66;98329.40;109608;1250;59886;-73
2023/03/13 08:49:08;;;;;;;8.90;4.50;;;;;;;11.84;85.09;98328.69;109616;1250;64820;-73
2023/03/13 08:51:36;;;;;;;7.90;3.80;;;;;;;11.92;85.09;98326.81;109499;1250;59011;-74
2023/03/13 08:54:03;;;;;;;10.30;4.00;;;;;;;12.00;83.84;98327.80;109355;1250;59049;-74
2023/03/13 08:56:31;;;;;;;8.60;4.30;;;;;;;12.04;82.13;98327.59;109631;1250;67509;-74
2023/03/13 08:59:00;;;;;;;6.20;3.70;;;;;;;12.12;81.95;98327.84;109666;1250;59915;-74
2023/03/13 09:01:29;;;;;;;9.30;3.80;;;;;;;12.17;80.27;98328.98;109398;1250;64104;-74
2023/03/13 09:03:56;;;;;;;5.60;3.30;;;;;;;12.21;80.39;98330.61;109588;1250;58960;-74
2023/03/13 09:06:23;;;;;;;7.00;3.40;;;;;;;12.31;79.20;98334.92;109553;1250;59254;-74
2023/03/13 09:08:49;;;;;;;6.80;3.00;;;;;;;12.35;78.45;98337.29;109657;1250;67064;-74
2023/03/13 09:11:19;;;;;;;6.20;3.20;;;;;;;12.38;79.31;98336.83;109649;1250;60720;-74
2023/03/13 09:13:47;;;;;;;6.60;3.40;;;;;;;12.46;78.91;98337.81;109381;1254;64326;-74
2023/03/13 09:16:16;;;;;;;6.30;3.60;;;;;;;12.47;78.22;98334.63;109616;1250;59024;-74
2023/03/13 09:18:44;;;;;;;10.60;4.40;;;;;;;12.42;77.41;98341.29;109628;1250;59061;-74
2023/03/13 09:21:25;;;;;;;9.00;4.50;;;;;;;12.41;77.82;98334.86;109620;1250;66830;-74
2023/03/13 09:23:52;;;;;;;7.10;3.30;;;;;;;12.41;77.81;98335.20;109640;1250;60871;-74
2023/03/13 09:26:20;;;;;;;8.50;4.20;;;;;;;12.41;77.52;98335.52;109654;1250;65096;-74
2023/03/13 09:28:47;;;;;;;7.70;3.90;;;;;;;12.42;78.10;98334.58;109642;1250;59013;-74
2023/03/13 09:31:19;;;;;;;6.30;3.60;;;;;;;12.47;77.78;98318.09;109669;1250;59874;-75
2023/03/13 09:33:47;;;;;;;5.80;3.50;;;;;;;12.50;77.94;98312.16;109617;1250;65983;-74
2023/03/13 09:36:16;;;;;;;7.10;3.20;;;;;;;12.52;77.54;98311.08;109533;1250;60715;-74
2023/03/13 09:38:43;;;;;;;7.00;3.90;;;;;;;12.49;77.23;98304.75;109432;1250;64015;-73
2023/03/13 09:41:16;;;;;;;6.40;3.30;;;;;;;12.51;78.22;98294.23;109673;1250;58983;-74
2023/03/13 09:43:54;;;;;;;4.80;3.10;;;;;;;12.57;77.52;98286.24;109683;1250;58994;-74
2023/03/13 09:46:32;;;;;;;4.90;3.40;;;;;;;12.59;76.86;98281.81;109634;1250;66664;-74
2023/03/13 09:49:04;;;;;;;6.10;3.70;;;;;;;12.63;77.25;98281.39;109687;1250;59721;-74
2023/03/13 09:51:35;;;;;;;6.80;3.50;;;;;;;12.70;77.96;98276.88;109633;1250;63743;-73
2023/03/13 09:54:12;;;;;;;10.20;4.20;;;;;;;12.84;78.89;98277.48;109665;1250;58930;-74
2023/03/13 09:57:12;;;;;;;9.00;3.70;;;;;;;12.99;78.95;98273.32;109631;1250;59025;-73
2023/03/13 09:59:42;;;;;;;6.40;2.90;;;;;;;13.12;77.94;98265.67;109032;1257;66871;-74
2023/03/13 10:02:28;;;;;;;7.40;2.90;;;;;;;13.24;77.84;98271.80;109000;1257;59837;-73
2023/03/13 10:05:03;;;;;;;6.70;3.10;;;;;;;13.39;77.62;98266.16;109028;1257;64858;-74
2023/03/13 10:07:30;;;;;;;7.20;3.80;;;;;;;13.58;77.02;98261.45;109024;1257;59054;-74
2023/03/13 10:10:00;;;;;;;9.00;3.40;;;;;;;13.70;74.64;98259.08;109041;1257;58994;-74
2023/03/13 10:12:31;;;;;;;8.60;3.40;;;;;;;13.63;75.03;98261.00;108965;1258;66081;-74
2023/03/13 10:15:31;;;;;;;5.60;2.90;;;;;;;13.56;74.61;98256.10;109028;1258;59949;-74
2023/03/13 10:18:05;;;;;;;4.50;2.50;;;;;;;13.56;74.33;98249.50;108970;1257;64646;-74
2023/03/13 10:20:35;;;;;;;5.80;3.30;;;;;;;13.68;74.40;98237.65;108957;1258;59033;-74
2023/03/13 10:23:26;;;;;;;8.10;4.40;;;;;;;13.80;73.36;98232.26;108978;1257;59076;-74
2023/03/13 10:25:52;;;;;;;5.80;3.00;;;;;;;13.78;71.81;98227.08;108741;1266;67022;-74
2023/03/13 10:28:21;;;;;;;5.90;2.70;;;;;;;13.76;71.96;98233.92;108657;1264;61061;-74
2023/03/13 10:30:53;;;;;;;8.70;3.00;;;;;;;13.78;72.03;98224.24;108404;1265;64749;-74
2023/03/13 10:33:28;;;;;;;6.80;2.50;;;;;;;13.87;72.01;98222.58;108707;1263;59065;-74
2023/03/13 10:36:02;;;;;;;6.20;2.70;;;;;;;13.88;70.34;98227.29;108756;1265;59218;-74
2023/03/13 10:38:32;;;;;;;9.10;3.30;;;;;;;13.79;70.14;98231.88;109000;1257;67158;-74
2023/03/13 10:41:08;;;;;;;9.10;5.10;;;;;;;13.67;69.08;98240.98;109002;1257;61146;-74
2023/03/13 10:43:53;;;;;;;12.20;6.70;;;;;;;13.54;69.25;98236.96;108996;1257;63828;-73
2023/03/13 10:46:27;;;;;;;12.80;5.10;;;;;;;13.54;70.18;98233.05;108993;1257;59343;-74
2023/03/13 10:48:55;;;;;;;9.70;4.40;;;;;;;13.68;69.23;98220.50;109017;1257;59131;-74
2023/03/13 10:51:30;;;;;;;9.60;3.70;;;;;;;13.80;68.61;98213.37;108888;1258;148491;-74
2023/03/13 10:53:57;;;;;;;6.80;3.20;;;;;;;13.84;67.06;98214.44;109051;1257;60783;-74
2023/03/13 10:56:29;;;;;;;6.80;3.40;;;;;;;13.84;66.51;98212.63;108990;1257;63719;-73
2023/03/13 10:58:56;;;;;;;6.30;2.80;;;;;;;13.84;66.45;98212.42;108957;1257;59024;-74
2023/03/13 11:01:27;;;;;;;5.60;2.90;;;;;;;13.90;65.49;98209.07;109016;1257;59363;-74
2023/03/13 11:03:56;;;;;;;5.90;3.30;;;;;;;14.11;66.87;98207.29;109503;1251;66739;-74
2023/03/13 11:06:27;;;;;;;6.20;3.10;;;;;;;14.34;66.23;98201.52;109544;1251;60510;-73
2023/03/13 11:09:13;;;;;;;6.50;2.90;;;;;;;14.47;65.94;98193.33;109563;1251;64107;-74
2023/03/13 11:12:13;;;;;;;7.80;3.40;;;;;;;14.57;64.53;98188.96;109531;1251;58923;-74
2023/03/13 11:14:41;;;;;;;10.20;3.70;;;;;;;14.56;63.11;98180.48;109534;1251;59089;-74
2023/03/13 11:17:22;;;;;;;5.40;2.80;;;;;;;14.56;63.65;98173.73;109507;1251;66697;-74
2023/03/13 11:20:24;;;;;;;6.40;2.90;;;;;;;14.58;63.56;98168.34;109522;1251;60787;-74
2023/03/13 11:23:09;;;;;;;5.40;2.70;;;;;;;14.68;63.53;98170.35;108957;1259;64975;-74
2023/03/13 11:25:48;;;;;;;5.20;2.90;;;;;;;14.83;62.56;98162.97;108968;1259;59085;-74
2023/03/13 11:28:35;;;;;;;5.20;2.80;;;;;;;15.07;62.53;98161.00;108952;1257;59119;-74
2023/03/13 11:31:23;;;;;;;5.30;2.50;;;;;;;15.37;62.13;98152.13;108991;1259;65974;-74
2023/03/13 11:34:02;;;;;;;4.80;2.70;;;;;;;15.59;61.05;98145.96;109032;1258;60064;-74